sensor_id;sensor_type;location;lat;lon;timestamp;P1;durP1;ratioP1;P2;durP2;ratioP2
58553;SDS011;48119;53.218;6.576;2023-06-05T00:00:45;5.30;;;3.67;;
58553;SDS011;48119;53.218;6.576;2023-06-05T00:03:11;5.28;;;3.47;;
58553;SDS011;48119;53.218;6.576;2023-06-05T00:05:37;7.40;;;3.90;;
58553;SDS011;48119;53.218;6.576;2023-06-05T00:08:03;7.50;;;3.83;;
58553;SDS011;48119;53.218;6.576;2023-06-05T00:10:28;5.28;;;3.63;;
58553;SDS011;48119;53.218;6.576;2023-06-05T00:12:55;7.38;;;3.83;;
58553;SDS011;48119;53.218;6.576;2023-06-05T00:15:20;6.35;;;3.60;;
58553;SDS011;48119;53.218;6.576;2023-06-05T00:17:46;5.25;;;3.67;;
58553;SDS011;48119;53.218;6.576;2023-06-05T00:20:12;6.78;;;3.45;;
58553;SDS011;48119;53.218;6.576;2023-06-05T00:22:38;6.20;;;3.95;;
58553;SDS011;48119;53.218;6.576;2023-06-05T00:25:04;4.82;;;3.30;;
58553;SDS011;48119;53.218;6.576;2023-06-05T00:27:31;6.80;;;4.13;;
58553;SDS011;48119;53.218;6.576;2023-06-05T00:29:56;5.57;;;3.72;;
58553;SDS011;48119;53.218;6.576;2023-06-05T00:32:22;5.95;;;3.55;;
58553;SDS011;48119;53.218;6.576;2023-06-05T00:34:48;5.75;;;3.80;;
58553;SDS011;48119;53.218;6.576;2023-06-05T00:37:15;7.20;;;3.58;;
58553;SDS011;48119;53.218;6.576;2023-06-05T00:39:41;7.28;;;3.33;;
58553;SDS011;48119;53.218;6.576;2023-06-05T00:42:07;5.85;;;3.33;;
58553;SDS011;48119;53.218;6.576;2023-06-05T00:44:36;5.57;;;3.60;;
58553;SDS011;48119;53.218;6.576;2023-06-05T00:47:02;5.05;;;3.47;;
58553;SDS011;48119;53.218;6.576;2023-06-05T00:49:29;6.25;;;4.18;;
58553;SDS011;48119;53.218;6.576;2023-06-05T00:51:56;6.38;;;3.95;;
58553;SDS011;48119;53.218;6.576;2023-06-05T00:54:23;5.30;;;3.58;;
58553;SDS011;48119;53.218;6.576;2023-06-05T00:56:48;6.50;;;4.68;;
58553;SDS011;48119;53.218;6.576;2023-06-05T00:59:17;11.25;;;4.25;;
58553;SDS011;48119;53.218;6.576;2023-06-05T01:01:43;7.38;;;3.95;;
58553;SDS011;48119;53.218;6.576;2023-06-05T01:04:10;5.75;;;3.05;;
58553;SDS011;48119;53.218;6.576;2023-06-05T01:06:36;5.63;;;4.30;;
58553;SDS011;48119;53.218;6.576;2023-06-05T01:09:08;4.85;;;3.40;;
58553;SDS011;48119;53.218;6.576;2023-06-05T01:11:57;9.65;;;4.07;;
58553;SDS011;48119;53.218;6.576;2023-06-05T01:14:24;8.13;;;3.75;;
58553;SDS011;48119;53.218;6.576;2023-06-05T01:16:55;6.38;;;3.92;;
58553;SDS011;48119;53.218;6.576;2023-06-05T01:19:26;7.05;;;3.90;;
58553;SDS011;48119;53.218;6.576;2023-06-05T01:21:56;9.27;;;3.92;;
58553;SDS011;48119;53.218;6.576;2023-06-05T01:24:22;7.75;;;4.03;;
58553;SDS011;48119;53.218;6.576;2023-06-05T01:32:22;7.75;;;4.07;;
58553;SDS011;48119;53.218;6.576;2023-06-05T01:34:57;5.38;;;3.45;;
58553;SDS011;48119;53.218;6.576;2023-06-05T01:37:25;7.75;;;3.92;;
58553;SDS011;48119;53.218;6.576;2023-06-05T01:39:53;6.22;;;3.78;;
58553;SDS011;48119;53.218;6.576;2023-06-05T01:42:21;8.02;;;3.33;;
58553;SDS011;48119;53.218;6.576;2023-06-05T01:44:49;5.75;;;4.20;;
58553;SDS011;48119;53.218;6.576;2023-06-05T01:47:15;7.70;;;3.97;;
58553;SDS011;48119;53.218;6.576;2023-06-05T01:49:40;6.28;;;3.35;;
58553;SDS011;48119;53.218;6.576;2023-06-05T01:52:07;9.10;;;4.90;;
58553;SDS011;48119;53.218;6.576;2023-06-05T01:54:33;5.78;;;3.72;;
58553;SDS011;48119;53.218;6.576;2023-06-05T01:56:59;6.10;;;4.05;;
58553;SDS011;48119;53.218;6.576;2023-06-05T01:59:25;7.68;;;4.50;;
58553;SDS011;48119;53.218;6.576;2023-06-05T02:01:51;9.43;;;4.47;;
58553;SDS011;48119;53.218;6.576;2023-06-05T02:04:17;7.45;;;4.30;;
58553;SDS011;48119;53.218;6.576;2023-06-05T02:06:44;7.28;;;4.28;;
58553;SDS011;48119;53.218;6.576;2023-06-05T02:09:10;8.95;;;4.10;;
58553;SDS011;48119;53.218;6.576;2023-06-05T02:11:37;6.07;;;3.60;;
58553;SDS011;48119;53.218;6.576;2023-06-05T02:14:04;7.10;;;4.78;;
58553;SDS011;48119;53.218;6.576;2023-06-05T02:16:37;7.63;;;4.60;;
58553;SDS011;48119;53.218;6.576;2023-06-05T02:19:03;11.07;;;4.53;;
58553;SDS011;48119;53.218;6.576;2023-06-05T02:21:32;7.68;;;5.25;;
58553;SDS011;48119;53.218;6.576;2023-06-05T02:23:59;6.25;;;4.20;;
58553;SDS011;48119;53.218;6.576;2023-06-05T02:26:25;7.90;;;5.28;;
58553;SDS011;48119;53.218;6.576;2023-06-05T02:28:52;5.88;;;4.18;;
58553;SDS011;48119;53.218;6.576;2023-06-05T02:31:22;6.78;;;3.83;;
58553;SDS011;48119;53.218;6.576;2023-06-05T02:33:54;5.88;;;4.18;;
58553;SDS011;48119;53.218;6.576;2023-06-05T02:36:24;7.72;;;3.90;;
58553;SDS011;48119;53.218;6.576;2023-06-05T02:38:51;7.55;;;4.10;;
58553;SDS011;48119;53.218;6.576;2023-06-05T02:41:17;5.03;;;3.78;;
58553;SDS011;48119;53.218;6.576;2023-06-05T02:43:43;7.65;;;4.20;;
58553;SDS011;48119;53.218;6.576;2023-06-05T02:46:10;5.80;;;4.25;;
58553;SDS011;48119;53.218;6.576;2023-06-05T02:48:36;8.73;;;4.05;;
58553;SDS011;48119;53.218;6.576;2023-06-05T02:51:02;4.80;;;3.80;;
58553;SDS011;48119;53.218;6.576;2023-06-05T02:53:28;7.10;;;4.28;;
58553;SDS011;48119;53.218;6.576;2023-06-05T02:55:54;7.95;;;4.25;;
58553;SDS011;48119;53.218;6.576;2023-06-05T02:58:20;5.63;;;4.45;;
58553;SDS011;48119;53.218;6.576;2023-06-05T03:00:46;6.75;;;4.13;;
58553;SDS011;48119;53.218;6.576;2023-06-05T03:03:15;7.18;;;4.20;;
58553;SDS011;48119;53.218;6.576;2023-06-05T03:05:42;4.72;;;3.90;;
58553;SDS011;48119;53.218;6.576;2023-06-05T03:08:10;5.53;;;3.42;;
58553;SDS011;48119;53.218;6.576;2023-06-05T03:10:36;6.53;;;3.67;;
58553;SDS011;48119;53.218;6.576;2023-06-05T03:13:02;6.20;;;3.90;;
58553;SDS011;48119;53.218;6.576;2023-06-05T03:15:28;5.78;;;3.58;;
58553;SDS011;48119;53.218;6.576;2023-06-05T03:17:53;6.20;;;3.50;;
58553;SDS011;48119;53.218;6.576;2023-06-05T03:20:19;9.38;;;4.22;;
58553;SDS011;48119;53.218;6.576;2023-06-05T03:22:45;8.10;;;3.40;;
58553;SDS011;48119;53.218;6.576;2023-06-05T03:25:11;4.82;;;3.15;;
58553;SDS011;48119;53.218;6.576;2023-06-05T03:27:37;11.68;;;3.53;;
58553;SDS011;48119;53.218;6.576;2023-06-05T03:30:03;5.10;;;3.13;;
58553;SDS011;48119;53.218;6.576;2023-06-05T03:32:30;5.65;;;4.05;;
58553;SDS011;48119;53.218;6.576;2023-06-05T03:34:56;5.30;;;3.58;;
58553;SDS011;48119;53.218;6.576;2023-06-05T03:37:22;8.52;;;3.75;;
58553;SDS011;48119;53.218;6.576;2023-06-05T03:39:47;5.15;;;3.10;;
58553;SDS011;48119;53.218;6.576;2023-06-05T03:42:13;6.75;;;3.13;;
58553;SDS011;48119;53.218;6.576;2023-06-05T03:44:39;5.40;;;3.30;;
58553;SDS011;48119;53.218;6.576;2023-06-05T03:47:05;4.55;;;3.42;;
58553;SDS011;48119;53.218;6.576;2023-06-05T03:49:33;4.57;;;3.25;;
58553;SDS011;48119;53.218;6.576;2023-06-05T03:51:58;7.20;;;4.22;;
58553;SDS011;48119;53.218;6.576;2023-06-05T03:54:28;5.72;;;3.63;;
58553;SDS011;48119;53.218;6.576;2023-06-05T03:56:54;4.47;;;3.60;;
58553;SDS011;48119;53.218;6.576;2023-06-05T03:59:21;6.28;;;3.72;;
58553;SDS011;48119;53.218;6.576;2023-06-05T04:01:49;5.35;;;4.15;;
58553;SDS011;48119;53.218;6.576;2023-06-05T04:04:15;4.82;;;3.42;;
58553;SDS011;48119;53.218;6.576;2023-06-05T04:06:41;4.32;;;2.97;;
58553;SDS011;48119;53.218;6.576;2023-06-05T04:09:07;7.47;;;3.17;;
58553;SDS011;48119;53.218;6.576;2023-06-05T04:11:43;6.53;;;3.75;;
58553;SDS011;48119;53.218;6.576;2023-06-05T04:14:09;6.03;;;3.63;;
58553;SDS011;48119;53.218;6.576;2023-06-05T04:16:37;5.82;;;3.97;;
58553;SDS011;48119;53.218;6.576;2023-06-05T04:19:05;8.25;;;3.65;;
58553;SDS011;48119;53.218;6.576;2023-06-05T04:21:32;4.97;;;3.47;;
58553;SDS011;48119;53.218;6.576;2023-06-05T04:24:01;6.07;;;4.28;;
58553;SDS011;48119;53.218;6.576;2023-06-05T04:26:32;5.03;;;3.22;;
58553;SDS011;48119;53.218;6.576;2023-06-05T04:28:59;7.57;;;4.03;;
58553;SDS011;48119;53.218;6.576;2023-06-05T04:31:27;5.32;;;3.50;;
58553;SDS011;48119;53.218;6.576;2023-06-05T04:33:57;7.53;;;3.95;;
58553;SDS011;48119;53.218;6.576;2023-06-05T04:36:25;5.00;;;3.10;;
58553;SDS011;48119;53.218;6.576;2023-06-05T04:38:54;4.15;;;3.00;;
58553;SDS011;48119;53.218;6.576;2023-06-05T04:41:21;4.35;;;2.30;;
58553;SDS011;48119;53.218;6.576;2023-06-05T04:43:51;5.28;;;2.65;;
58553;SDS011;48119;53.218;6.576;2023-06-05T04:46:35;4.30;;;2.78;;
58553;SDS011;48119;53.218;6.576;2023-06-05T04:49:04;3.17;;;2.38;;
58553;SDS011;48119;53.218;6.576;2023-06-05T04:51:31;3.50;;;2.28;;
58553;SDS011;48119;53.218;6.576;2023-06-05T04:53:58;6.32;;;2.58;;
58553;SDS011;48119;53.218;6.576;2023-06-05T04:56:24;4.30;;;2.13;;
58553;SDS011;48119;53.218;6.576;2023-06-05T04:58:50;4.90;;;2.53;;
58553;SDS011;48119;53.218;6.576;2023-06-05T05:01:18;2.75;;;2.15;;
58553;SDS011;48119;53.218;6.576;2023-06-05T05:03:45;3.83;;;1.67;;
58553;SDS011;48119;53.218;6.576;2023-06-05T05:06:15;4.40;;;2.70;;
58553;SDS011;48119;53.218;6.576;2023-06-05T05:08:41;2.83;;;1.77;;
58553;SDS011;48119;53.218;6.576;2023-06-05T05:11:10;3.38;;;2.53;;
58553;SDS011;48119;53.218;6.576;2023-06-05T05:13:36;2.88;;;2.10;;
58553;SDS011;48119;53.218;6.576;2023-06-05T05:16:02;4.18;;;2.72;;
58553;SDS011;48119;53.218;6.576;2023-06-05T05:18:28;4.03;;;2.28;;
58553;SDS011;48119;53.218;6.576;2023-06-05T05:20:55;3.50;;;2.50;;
58553;SDS011;48119;53.218;6.576;2023-06-05T05:23:20;3.78;;;1.90;;
58553;SDS011;48119;53.218;6.576;2023-06-05T05:25:46;3.72;;;1.88;;
58553;SDS011;48119;53.218;6.576;2023-06-05T05:28:13;4.20;;;2.05;;
58553;SDS011;48119;53.218;6.576;2023-06-05T05:30:39;4.63;;;2.28;;
58553;SDS011;48119;53.218;6.576;2023-06-05T05:33:04;2.85;;;2.35;;
58553;SDS011;48119;53.218;6.576;2023-06-05T05:35:30;3.85;;;2.40;;
58553;SDS011;48119;53.218;6.576;2023-06-05T05:37:56;3.13;;;2.10;;
58553;SDS011;48119;53.218;6.576;2023-06-05T05:40:22;3.92;;;2.53;;
58553;SDS011;48119;53.218;6.576;2023-06-05T05:42:48;4.00;;;2.40;;
58553;SDS011;48119;53.218;6.576;2023-06-05T05:45:14;4.03;;;1.83;;
58553;SDS011;48119;53.218;6.576;2023-06-05T05:47:40;3.05;;;1.73;;
58553;SDS011;48119;53.218;6.576;2023-06-05T05:50:06;4.05;;;1.65;;
58553;SDS011;48119;53.218;6.576;2023-06-05T05:52:32;7.05;;;2.20;;
58553;SDS011;48119;53.218;6.576;2023-06-05T05:54:58;3.50;;;1.70;;
58553;SDS011;48119;53.218;6.576;2023-06-05T05:57:25;2.42;;;1.38;;
58553;SDS011;48119;53.218;6.576;2023-06-05T05:59:52;4.57;;;1.77;;
58553;SDS011;48119;53.218;6.576;2023-06-05T06:02:18;5.32;;;1.70;;
58553;SDS011;48119;53.218;6.576;2023-06-05T06:04:45;4.05;;;1.55;;
58553;SDS011;48119;53.218;6.576;2023-06-05T06:07:11;2.20;;;1.40;;
58553;SDS011;48119;53.218;6.576;2023-06-05T06:09:37;3.42;;;2.00;;
58553;SDS011;48119;53.218;6.576;2023-06-05T06:12:04;4.22;;;1.88;;
58553;SDS011;48119;53.218;6.576;2023-06-05T06:14:33;3.30;;;1.90;;
58553;SDS011;48119;53.218;6.576;2023-06-05T06:17:03;2.38;;;1.80;;
58553;SDS011;48119;53.218;6.576;2023-06-05T06:19:31;5.25;;;1.90;;
58553;SDS011;48119;53.218;6.576;2023-06-05T06:21:58;4.35;;;1.83;;
58553;SDS011;48119;53.218;6.576;2023-06-05T06:24:24;2.80;;;1.70;;
58553;SDS011;48119;53.218;6.576;2023-06-05T06:26:49;2.53;;;1.50;;
58553;SDS011;48119;53.218;6.576;2023-06-05T06:29:18;2.72;;;1.70;;
58553;SDS011;48119;53.218;6.576;2023-06-05T06:31:44;2.58;;;1.85;;
58553;SDS011;48119;53.218;6.576;2023-06-05T06:34:10;3.35;;;1.60;;
58553;SDS011;48119;53.218;6.576;2023-06-05T06:36:39;3.63;;;1.42;;
58553;SDS011;48119;53.218;6.576;2023-06-05T06:39:08;6.32;;;1.90;;
58553;SDS011;48119;53.218;6.576;2023-06-05T06:41:35;9.65;;;2.40;;
58553;SDS011;48119;53.218;6.576;2023-06-05T06:44:01;2.15;;;1.65;;
58553;SDS011;48119;53.218;6.576;2023-06-05T06:46:28;3.13;;;1.75;;
58553;SDS011;48119;53.218;6.576;2023-06-05T06:48:54;3.00;;;1.77;;
58553;SDS011;48119;53.218;6.576;2023-06-05T06:51:20;3.30;;;2.00;;
58553;SDS011;48119;53.218;6.576;2023-06-05T06:53:49;5.35;;;1.95;;
58553;SDS011;48119;53.218;6.576;2023-06-05T06:56:16;3.03;;;1.80;;
58553;SDS011;48119;53.218;6.576;2023-06-05T06:58:43;5.85;;;1.98;;
58553;SDS011;48119;53.218;6.576;2023-06-05T07:01:10;4.38;;;1.83;;
58553;SDS011;48119;53.218;6.576;2023-06-05T07:03:37;3.47;;;1.90;;
58553;SDS011;48119;53.218;6.576;2023-06-05T07:06:03;3.80;;;1.95;;
58553;SDS011;48119;53.218;6.576;2023-06-05T07:08:29;6.32;;;2.17;;
58553;SDS011;48119;53.218;6.576;2023-06-05T07:10:55;3.63;;;1.85;;
58553;SDS011;48119;53.218;6.576;2023-06-05T07:13:21;3.97;;;2.28;;
58553;SDS011;48119;53.218;6.576;2023-06-05T07:15:47;2.92;;;2.30;;
58553;SDS011;48119;53.218;6.576;2023-06-05T07:18:13;3.83;;;2.30;;
58553;SDS011;48119;53.218;6.576;2023-06-05T07:20:39;3.08;;;2.15;;
58553;SDS011;48119;53.218;6.576;2023-06-05T07:23:05;4.03;;;2.25;;
58553;SDS011;48119;53.218;6.576;2023-06-05T07:25:30;5.35;;;2.15;;
58553;SDS011;48119;53.218;6.576;2023-06-05T07:27:57;6.43;;;2.78;;
58553;SDS011;48119;53.218;6.576;2023-06-05T07:30:25;3.30;;;2.00;;
58553;SDS011;48119;53.218;6.576;2023-06-05T07:32:53;5.43;;;2.53;;
58553;SDS011;48119;53.218;6.576;2023-06-05T07:35:19;3.25;;;1.90;;
58553;SDS011;48119;53.218;6.576;2023-06-05T07:37:48;4.97;;;2.60;;
58553;SDS011;48119;53.218;6.576;2023-06-05T07:40:14;3.70;;;2.20;;
58553;SDS011;48119;53.218;6.576;2023-06-05T07:42:40;3.50;;;2.15;;
58553;SDS011;48119;53.218;6.576;2023-06-05T07:45:06;4.35;;;2.45;;
58553;SDS011;48119;53.218;6.576;2023-06-05T07:47:32;4.00;;;2.50;;
58553;SDS011;48119;53.218;6.576;2023-06-05T07:50:01;3.28;;;1.90;;
58553;SDS011;48119;53.218;6.576;2023-06-05T07:52:31;3.38;;;1.95;;
58553;SDS011;48119;53.218;6.576;2023-06-05T07:54:57;2.83;;;1.90;;
58553;SDS011;48119;53.218;6.576;2023-06-05T07:57:23;3.05;;;1.98;;
58553;SDS011;48119;53.218;6.576;2023-06-05T07:59:49;4.88;;;2.25;;
58553;SDS011;48119;53.218;6.576;2023-06-05T08:02:20;4.15;;;2.13;;
58553;SDS011;48119;53.218;6.576;2023-06-05T08:04:46;5.03;;;2.15;;
58553;SDS011;48119;53.218;6.576;2023-06-05T08:07:12;4.85;;;2.10;;
58553;SDS011;48119;53.218;6.576;2023-06-05T08:09:38;2.67;;;1.95;;
58553;SDS011;48119;53.218;6.576;2023-06-05T08:12:04;4.43;;;2.53;;
58553;SDS011;48119;53.218;6.576;2023-06-05T08:14:31;4.72;;;2.08;;
58553;SDS011;48119;53.218;6.576;2023-06-05T08:16:58;3.05;;;1.90;;
58553;SDS011;48119;53.218;6.576;2023-06-05T08:19:24;3.28;;;2.17;;
58553;SDS011;48119;53.218;6.576;2023-06-05T08:21:51;5.22;;;2.28;;
58553;SDS011;48119;53.218;6.576;2023-06-05T08:24:19;3.70;;;2.08;;
58553;SDS011;48119;53.218;6.576;2023-06-05T08:26:45;5.60;;;1.90;;
58553;SDS011;48119;53.218;6.576;2023-06-05T08:29:11;3.33;;;2.05;;
58553;SDS011;48119;53.218;6.576;2023-06-05T08:31:37;4.97;;;2.33;;
58553;SDS011;48119;53.218;6.576;2023-06-05T08:34:04;3.67;;;2.25;;
58553;SDS011;48119;53.218;6.576;2023-06-05T08:36:30;4.30;;;2.88;;
58553;SDS011;48119;53.218;6.576;2023-06-05T08:39:00;3.58;;;2.17;;
58553;SDS011;48119;53.218;6.576;2023-06-05T08:41:28;7.43;;;2.70;;
58553;SDS011;48119;53.218;6.576;2023-06-05T08:43:56;3.38;;;2.25;;
58553;SDS011;48119;53.218;6.576;2023-06-05T08:46:22;4.40;;;2.53;;
58553;SDS011;48119;53.218;6.576;2023-06-05T08:48:48;3.22;;;2.20;;
58553;SDS011;48119;53.218;6.576;2023-06-05T08:51:18;3.70;;;2.58;;
58553;SDS011;48119;53.218;6.576;2023-06-05T08:53:47;6.72;;;3.05;;
58553;SDS011;48119;53.218;6.576;2023-06-05T08:56:37;3.85;;;2.60;;
58553;SDS011;48119;53.218;6.576;2023-06-05T08:59:06;3.40;;;2.55;;
58553;SDS011;48119;53.218;6.576;2023-06-05T09:01:32;4.10;;;2.83;;
58553;SDS011;48119;53.218;6.576;2023-06-05T09:03:58;3.95;;;2.25;;
58553;SDS011;48119;53.218;6.576;2023-06-05T09:06:24;3.55;;;2.50;;
58553;SDS011;48119;53.218;6.576;2023-06-05T09:08:50;3.97;;;2.08;;
58553;SDS011;48119;53.218;6.576;2023-06-05T09:11:29;7.13;;;2.60;;
58553;SDS011;48119;53.218;6.576;2023-06-05T09:13:57;5.68;;;2.85;;
58553;SDS011;48119;53.218;6.576;2023-06-05T09:16:32;3.33;;;2.28;;
58553;SDS011;48119;53.218;6.576;2023-06-05T09:18:59;6.85;;;3.50;;
58553;SDS011;48119;53.218;6.576;2023-06-05T09:21:25;6.80;;;3.30;;
58553;SDS011;48119;53.218;6.576;2023-06-05T09:24:15;3.72;;;2.67;;
58553;SDS011;48119;53.218;6.576;2023-06-05T09:29:28;5.88;;;3.05;;
58553;SDS011;48119;53.218;6.576;2023-06-05T09:31:56;5.57;;;2.47;;
58553;SDS011;48119;53.218;6.576;2023-06-05T09:36:59;4.63;;;2.28;;
58553;SDS011;48119;53.218;6.576;2023-06-05T09:39:27;3.50;;;2.50;;
58553;SDS011;48119;53.218;6.576;2023-06-05T09:41:54;4.85;;;2.78;;
58553;SDS011;48119;53.218;6.576;2023-06-05T09:44:22;4.50;;;2.35;;
58553;SDS011;48119;53.218;6.576;2023-06-05T09:46:59;3.47;;;1.98;;
58553;SDS011;48119;53.218;6.576;2023-06-05T09:49:33;5.93;;;3.17;;
58553;SDS011;48119;53.218;6.576;2023-06-05T09:52:13;7.13;;;2.50;;
58553;SDS011;48119;53.218;6.576;2023-06-05T09:54:41;6.03;;;2.75;;
58553;SDS011;48119;53.218;6.576;2023-06-05T09:57:10;4.40;;;2.65;;
58553;SDS011;48119;53.218;6.576;2023-06-05T09:59:53;3.20;;;2.28;;
58553;SDS011;48119;53.218;6.576;2023-06-05T10:02:20;5.00;;;2.65;;
58553;SDS011;48119;53.218;6.576;2023-06-05T10:04:49;3.05;;;2.63;;
58553;SDS011;48119;53.218;6.576;2023-06-05T10:07:24;3.85;;;2.53;;
58553;SDS011;48119;53.218;6.576;2023-06-05T10:09:51;4.75;;;2.55;;
58553;SDS011;48119;53.218;6.576;2023-06-05T10:12:19;4.10;;;2.25;;
58553;SDS011;48119;53.218;6.576;2023-06-05T10:14:47;4.35;;;2.58;;
58553;SDS011;48119;53.218;6.576;2023-06-05T10:17:15;2.83;;;1.73;;
58553;SDS011;48119;53.218;6.576;2023-06-05T10:19:44;2.63;;;1.90;;
58553;SDS011;48119;53.218;6.576;2023-06-05T10:22:13;6.63;;;2.20;;
58553;SDS011;48119;53.218;6.576;2023-06-05T10:24:51;3.75;;;2.60;;
58553;SDS011;48119;53.218;6.576;2023-06-05T10:38:18;2.90;;;2.13;;
58553;SDS011;48119;53.218;6.576;2023-06-05T10:40:51;4.15;;;2.40;;
58553;SDS011;48119;53.218;6.576;2023-06-05T10:49:11;4.25;;;2.15;;
58553;SDS011;48119;53.218;6.576;2023-06-05T10:51:45;5.03;;;3.25;;
58553;SDS011;48119;53.218;6.576;2023-06-05T10:54:57;6.35;;;3.33;;
58553;SDS011;48119;53.218;6.576;2023-06-05T10:57:18;2.80;;;2.10;;
58553;SDS011;48119;53.218;6.576;2023-06-05T10:59:44;4.00;;;1.92;;
58553;SDS011;48119;53.218;6.576;2023-06-05T11:15:06;4.18;;;1.90;;
58553;SDS011;48119;53.218;6.576;2023-06-05T11:17:34;5.05;;;1.80;;
58553;SDS011;48119;53.218;6.576;2023-06-05T11:30:20;3.08;;;1.98;;
58553;SDS011;48119;53.218;6.576;2023-06-05T11:32:47;3.35;;;1.85;;
58553;SDS011;48119;53.218;6.576;2023-06-05T11:35:17;3.90;;;2.17;;
58553;SDS011;48119;53.218;6.576;2023-06-05T11:37:46;3.47;;;2.17;;
58553;SDS011;48119;53.218;6.576;2023-06-05T11:40:22;3.35;;;2.03;;
58553;SDS011;48119;53.218;6.576;2023-06-05T11:42:49;2.63;;;1.80;;
58553;SDS011;48119;53.218;6.576;2023-06-05T11:45:15;5.38;;;2.28;;
58553;SDS011;48119;53.218;6.576;2023-06-05T11:47:41;3.63;;;2.58;;
58553;SDS011;48119;53.218;6.576;2023-06-05T11:50:11;5.25;;;2.33;;
58553;SDS011;48119;53.218;6.576;2023-06-05T11:55:15;2.83;;;1.85;;
58553;SDS011;48119;53.218;6.576;2023-06-05T11:57:47;3.13;;;2.08;;
58553;SDS011;48119;53.218;6.576;2023-06-05T12:00:14;4.05;;;2.20;;
58553;SDS011;48119;53.218;6.576;2023-06-05T12:02:41;3.78;;;1.92;;
58553;SDS011;48119;53.218;6.576;2023-06-05T12:05:11;3.70;;;1.85;;
58553;SDS011;48119;53.218;6.576;2023-06-05T12:07:37;5.10;;;2.35;;
58553;SDS011;48119;53.218;6.576;2023-06-05T12:10:05;4.63;;;1.80;;
58553;SDS011;48119;53.218;6.576;2023-06-05T12:12:41;3.20;;;2.50;;
58553;SDS011;48119;53.218;6.576;2023-06-05T12:15:21;4.38;;;2.10;;
58553;SDS011;48119;53.218;6.576;2023-06-05T12:20:17;4.20;;;1.77;;
58553;SDS011;48119;53.218;6.576;2023-06-05T12:22:43;4.60;;;2.45;;
58553;SDS011;48119;53.218;6.576;2023-06-05T12:25:22;3.95;;;2.38;;
58553;SDS011;48119;53.218;6.576;2023-06-05T12:27:48;3.78;;;2.10;;
58553;SDS011;48119;53.218;6.576;2023-06-05T12:30:15;3.78;;;2.03;;
58553;SDS011;48119;53.218;6.576;2023-06-05T12:32:44;4.13;;;2.35;;
58553;SDS011;48119;53.218;6.576;2023-06-05T12:35:23;3.35;;;2.03;;
58553;SDS011;48119;53.218;6.576;2023-06-05T12:37:52;3.25;;;2.15;;
58553;SDS011;48119;53.218;6.576;2023-06-05T12:40:25;3.33;;;2.00;;
58553;SDS011;48119;53.218;6.576;2023-06-05T12:42:51;4.30;;;2.42;;
58553;SDS011;48119;53.218;6.576;2023-06-05T12:45:17;4.57;;;2.08;;
58553;SDS011;48119;53.218;6.576;2023-06-05T12:47:52;4.60;;;3.13;;
58553;SDS011;48119;53.218;6.576;2023-06-05T12:50:18;3.72;;;2.75;;
58553;SDS011;48119;53.218;6.576;2023-06-05T12:52:45;5.18;;;2.72;;
58553;SDS011;48119;53.218;6.576;2023-06-05T12:55:10;4.20;;;2.58;;
58553;SDS011;48119;53.218;6.576;2023-06-05T12:57:37;5.63;;;2.70;;
58553;SDS011;48119;53.218;6.576;2023-06-05T13:00:04;4.95;;;2.90;;
58553;SDS011;48119;53.218;6.576;2023-06-05T13:02:37;5.38;;;2.58;;
58553;SDS011;48119;53.218;6.576;2023-06-05T13:05:05;3.17;;;2.38;;
58553;SDS011;48119;53.218;6.576;2023-06-05T13:07:31;5.65;;;3.15;;
58553;SDS011;48119;53.218;6.576;2023-06-05T13:09:57;3.80;;;2.70;;
58553;SDS011;48119;53.218;6.576;2023-06-05T13:12:23;4.70;;;2.53;;
58553;SDS011;48119;53.218;6.576;2023-06-05T13:14:49;4.82;;;2.90;;
58553;SDS011;48119;53.218;6.576;2023-06-05T13:17:15;3.55;;;2.80;;
58553;SDS011;48119;53.218;6.576;2023-06-05T13:19:41;5.05;;;3.25;;
58553;SDS011;48119;53.218;6.576;2023-06-05T13:22:07;4.90;;;3.03;;
58553;SDS011;48119;53.218;6.576;2023-06-05T13:24:32;5.15;;;2.95;;
58553;SDS011;48119;53.218;6.576;2023-06-05T13:26:58;5.97;;;3.28;;
58553;SDS011;48119;53.218;6.576;2023-06-05T13:29:24;9.00;;;4.05;;
58553;SDS011;48119;53.218;6.576;2023-06-05T13:31:50;7.47;;;4.10;;
58553;SDS011;48119;53.218;6.576;2023-06-05T13:34:15;5.68;;;3.83;;
58553;SDS011;48119;53.218;6.576;2023-06-05T13:36:42;5.78;;;3.05;;
58553;SDS011;48119;53.218;6.576;2023-06-05T13:39:08;5.05;;;3.42;;
58553;SDS011;48119;53.218;6.576;2023-06-05T13:41:34;7.32;;;4.05;;
58553;SDS011;48119;53.218;6.576;2023-06-05T13:44:00;6.85;;;3.67;;
58553;SDS011;48119;53.218;6.576;2023-06-05T13:46:26;5.75;;;3.53;;
58553;SDS011;48119;53.218;6.576;2023-06-05T13:48:51;5.80;;;3.63;;
58553;SDS011;48119;53.218;6.576;2023-06-05T13:51:17;5.43;;;2.95;;
58553;SDS011;48119;53.218;6.576;2023-06-05T13:53:44;4.68;;;3.30;;
58553;SDS011;48119;53.218;6.576;2023-06-05T13:56:10;4.45;;;3.35;;
58553;SDS011;48119;53.218;6.576;2023-06-05T13:58:35;6.53;;;3.30;;
58553;SDS011;48119;53.218;6.576;2023-06-05T14:01:01;4.80;;;2.90;;
58553;SDS011;48119;53.218;6.576;2023-06-05T14:03:28;6.65;;;3.70;;
58553;SDS011;48119;53.218;6.576;2023-06-05T14:05:54;4.85;;;3.22;;
58553;SDS011;48119;53.218;6.576;2023-06-05T14:08:20;5.78;;;3.45;;
58553;SDS011;48119;53.218;6.576;2023-06-05T14:10:46;6.22;;;3.78;;
58553;SDS011;48119;53.218;6.576;2023-06-05T14:13:12;6.03;;;3.83;;
58553;SDS011;48119;53.218;6.576;2023-06-05T14:15:38;6.60;;;4.22;;
58553;SDS011;48119;53.218;6.576;2023-06-05T14:18:04;5.45;;;2.83;;
58553;SDS011;48119;53.218;6.576;2023-06-05T14:20:31;7.75;;;4.25;;
58553;SDS011;48119;53.218;6.576;2023-06-05T14:22:59;4.60;;;3.50;;
58553;SDS011;48119;53.218;6.576;2023-06-05T14:25:27;5.30;;;3.40;;
58553;SDS011;48119;53.218;6.576;2023-06-05T14:27:53;5.63;;;3.80;;
58553;SDS011;48119;53.218;6.576;2023-06-05T14:30:20;6.60;;;4.40;;
58553;SDS011;48119;53.218;6.576;2023-06-05T14:32:47;4.28;;;3.63;;
58553;SDS011;48119;53.218;6.576;2023-06-05T14:35:12;4.63;;;4.05;;
58553;SDS011;48119;53.218;6.576;2023-06-05T14:37:39;6.38;;;3.90;;
58553;SDS011;48119;53.218;6.576;2023-06-05T14:40:05;15.13;;;4.90;;
58553;SDS011;48119;53.218;6.576;2023-06-05T14:42:31;4.22;;;3.72;;
58553;SDS011;48119;53.218;6.576;2023-06-05T14:44:57;7.22;;;4.72;;
58553;SDS011;48119;53.218;6.576;2023-06-05T14:47:23;5.78;;;4.00;;
58553;SDS011;48119;53.218;6.576;2023-06-05T14:49:49;5.20;;;4.10;;
58553;SDS011;48119;53.218;6.576;2023-06-05T14:52:15;6.88;;;3.75;;
58553;SDS011;48119;53.218;6.576;2023-06-05T14:54:40;7.18;;;3.72;;
58553;SDS011;48119;53.218;6.576;2023-06-05T14:57:06;5.90;;;3.92;;
58553;SDS011;48119;53.218;6.576;2023-06-05T14:59:33;9.68;;;4.18;;
58553;SDS011;48119;53.218;6.576;2023-06-05T15:01:59;5.63;;;3.70;;
58553;SDS011;48119;53.218;6.576;2023-06-05T15:04:25;4.63;;;2.85;;
58553;SDS011;48119;53.218;6.576;2023-06-05T15:06:52;6.75;;;3.55;;
58553;SDS011;48119;53.218;6.576;2023-06-05T15:09:22;5.32;;;4.05;;
58553;SDS011;48119;53.218;6.576;2023-06-05T15:11:48;6.40;;;3.50;;
58553;SDS011;48119;53.218;6.576;2023-06-05T15:14:20;7.57;;;4.75;;
58553;SDS011;48119;53.218;6.576;2023-06-05T15:16:47;8.38;;;5.00;;
58553;SDS011;48119;53.218;6.576;2023-06-05T15:19:18;9.70;;;5.03;;
58553;SDS011;48119;53.218;6.576;2023-06-05T15:21:45;8.70;;;4.85;;
58553;SDS011;48119;53.218;6.576;2023-06-05T15:24:11;6.75;;;4.18;;
58553;SDS011;48119;53.218;6.576;2023-06-05T15:26:36;8.68;;;5.13;;
58553;SDS011;48119;53.218;6.576;2023-06-05T15:29:02;8.00;;;4.88;;
58553;SDS011;48119;53.218;6.576;2023-06-05T15:31:28;7.10;;;4.18;;
58553;SDS011;48119;53.218;6.576;2023-06-05T15:33:54;7.15;;;3.67;;
58553;SDS011;48119;53.218;6.576;2023-06-05T15:36:20;7.50;;;4.32;;
58553;SDS011;48119;53.218;6.576;2023-06-05T15:38:46;7.28;;;4.97;;
58553;SDS011;48119;53.218;6.576;2023-06-05T15:41:14;6.60;;;4.40;;
58553;SDS011;48119;53.218;6.576;2023-06-05T15:43:39;6.80;;;4.60;;
58553;SDS011;48119;53.218;6.576;2023-06-05T15:46:05;7.07;;;3.90;;